createdAt,value
2023-01-13T00:02:46.140Z,9.07
2023-01-13T00:06:47.756Z,9.19
2023-01-13T00:10:49.338Z,9.27
2023-01-13T00:14:52.256Z,9.14
2023-01-13T00:18:54.002Z,9.13
2023-01-13T00:22:55.600Z,9.19
2023-01-13T00:26:57.153Z,9.13
2023-01-13T00:31:06.233Z,9.04
2023-01-13T00:35:08.413Z,9.02
2023-01-13T00:39:09.987Z,9.13
2023-01-13T00:43:11.555Z,8.98
2023-01-13T00:47:14.454Z,8.88
2023-01-13T00:51:18.502Z,8.90
2023-01-13T00:55:20.091Z,8.72
2023-01-13T00:59:21.667Z,8.70
2023-01-13T01:03:24.586Z,8.74
2023-01-13T01:07:26.148Z,8.56
2023-01-13T01:11:31.038Z,8.43
2023-01-13T01:15:32.636Z,8.31
2023-01-13T01:19:35.693Z,8.26
2023-01-13T01:23:38.054Z,8.29
2023-01-13T01:27:39.615Z,8.26
2023-01-13T01:31:41.334Z,8.22
2023-01-13T01:35:44.239Z,8.22
2023-01-13T01:39:45.807Z,8.26
2023-01-13T01:43:51.388Z,8.46
2023-01-13T01:47:57.953Z,8.41
2023-01-13T01:52:06.609Z,8.50
2023-01-13T01:56:09.304Z,8.54
2023-01-13T02:00:12.454Z,8.70
2023-01-13T02:04:17.420Z,8.87
2023-01-13T02:08:20.934Z,8.79
2023-01-13T02:12:24.060Z,8.92
2023-01-13T02:16:26.070Z,8.92
2023-01-13T02:20:45.055Z,8.94
2023-01-13T02:25:15.636Z,8.88
2023-01-13T02:29:37.479Z,8.97
2023-01-13T02:33:52.505Z,8.92
2023-01-13T02:37:56.835Z,9.02
2023-01-13T02:42:06.639Z,9.07
2023-01-13T02:46:13.459Z,9.10
2023-01-13T02:50:18.266Z,9.06
2023-01-13T02:54:23.827Z,9.15
2023-01-13T02:58:28.966Z,9.21
2023-01-13T03:02:31.991Z,9.08
2023-01-13T03:06:43.802Z,9.18
2023-01-13T03:11:01.211Z,9.17
2023-01-13T03:15:10.511Z,9.12
2023-01-13T03:19:25.011Z,9.10
2023-01-13T03:23:32.883Z,9.08
2023-01-13T03:27:43.123Z,9.19
2023-01-13T03:31:53.576Z,9.23
2023-01-13T03:36:02.001Z,9.25
2023-01-13T03:40:08.604Z,9.26
2023-01-13T03:44:15.144Z,9.38
2023-01-13T03:48:20.152Z,9.26
2023-01-13T03:52:28.099Z,9.23
2023-01-13T03:56:33.948Z,9.25
2023-01-13T04:00:38.524Z,9.30
2023-01-13T04:04:45.316Z,9.33
2023-01-13T04:08:53.528Z,9.35
2023-01-13T04:13:00.508Z,9.35
2023-01-13T04:17:01.952Z,9.29
2023-01-13T04:21:04.210Z,9.23
2023-01-13T04:25:08.623Z,9.35
2023-01-13T04:29:10.006Z,9.23
2023-01-13T04:33:13.018Z,9.35
2023-01-13T04:37:14.404Z,9.35
2023-01-13T04:41:17.135Z,9.44
2023-01-13T04:45:18.586Z,9.44
2023-01-13T04:49:20.190Z,9.25
2023-01-13T04:53:21.601Z,9.37
2023-01-13T04:57:24.321Z,9.35
2023-01-13T05:01:25.802Z,9.27
2023-01-13T05:05:28.213Z,9.28
2023-01-13T05:09:29.624Z,9.29
2023-01-13T05:13:32.357Z,9.35
2023-01-13T05:17:34.041Z,9.38
2023-01-13T05:21:35.439Z,9.34
2023-01-13T05:25:39.245Z,9.41
2023-01-13T05:29:41.978Z,9.37
2023-01-13T05:33:43.372Z,9.43
2023-01-13T05:37:45.475Z,9.35
2023-01-13T05:41:47.033Z,9.35
2023-01-13T05:45:52.190Z,9.24
2023-01-13T05:49:53.580Z,9.30
2023-01-13T05:53:55.015Z,9.30
2023-01-13T05:57:56.402Z,9.22
2023-01-13T06:01:59.123Z,9.33
2023-01-13T06:06:00.939Z,9.43
2023-01-13T06:10:02.368Z,9.36
2023-01-13T06:14:03.748Z,9.23
2023-01-13T06:18:06.520Z,9.21
2023-01-13T06:22:12.930Z,9.25
2023-01-13T06:26:17.412Z,9.17
2023-01-13T06:30:19.893Z,9.16
2023-01-13T06:34:23.031Z,9.19
2023-01-13T06:38:26.825Z,9.19
2023-01-13T06:42:30.417Z,9.13
2023-01-13T06:46:31.881Z,9.15
2023-01-13T06:50:34.618Z,9.17
2023-01-13T06:54:36.008Z,9.18
2023-01-13T06:58:38.275Z,9.33
2023-01-13T07:02:39.748Z,9.30
2023-01-13T07:06:42.535Z,9.48
2023-01-13T07:10:43.952Z,9.53
2023-01-13T07:14:45.340Z,9.50
2023-01-13T07:18:46.735Z,9.51
2023-01-13T07:22:53.464Z,9.58
2023-01-13T07:26:54.895Z,9.71
2023-01-13T07:30:56.734Z,9.67
2023-01-13T07:34:58.296Z,9.67
2023-01-13T07:39:01.397Z,9.65
2023-01-13T07:43:03.345Z,9.65
2023-01-13T07:47:04.816Z,9.76
2023-01-13T07:51:08.173Z,9.67
2023-01-13T07:55:10.949Z,9.63
2023-01-13T07:59:12.330Z,9.72
2023-01-13T08:03:13.731Z,9.62
2023-01-13T08:07:15.125Z,9.67
2023-01-13T08:11:17.914Z,9.64
2023-01-13T08:15:19.310Z,9.66
2023-01-13T08:19:20.705Z,9.62
2023-01-13T08:23:23.306Z,9.73
2023-01-13T08:27:26.049Z,9.71
2023-01-13T08:31:27.466Z,9.73
2023-01-13T08:35:28.927Z,9.71
2023-01-13T08:39:30.520Z,9.78
2023-01-13T08:43:33.315Z,9.61
2023-01-13T08:47:35.136Z,9.58
2023-01-13T08:51:36.564Z,9.59
2023-01-13T08:55:40.053Z,9.62
2023-01-13T08:59:42.832Z,9.82
2023-01-13T09:03:44.225Z,9.86
2023-01-13T09:07:45.884Z,10.02
2023-01-13T09:11:50.059Z,9.85
2023-01-13T09:15:52.960Z,7.74
2023-01-13T09:19:54.398Z,6.53
2023-01-13T09:23:55.811Z,6.13
2023-01-13T09:27:57.415Z,5.99
2023-01-13T09:32:00.147Z,5.95
2023-01-13T09:36:01.704Z,5.87
2023-01-13T09:40:06.313Z,5.72
2023-01-13T09:44:13.163Z,5.79
2023-01-13T09:48:22.943Z,5.87
2023-01-13T09:52:27.295Z,5.91
2023-01-13T09:56:28.762Z,6.07
2023-01-13T10:00:38.771Z,6.15
2023-01-13T10:04:41.579Z,6.26
2023-01-13T10:08:45.534Z,6.24
2023-01-13T10:12:50.235Z,6.40
2023-01-13T10:17:02.371Z,6.38
2023-01-13T10:21:19.171Z,6.37
2023-01-13T10:25:26.516Z,6.41
2023-01-13T10:29:29.658Z,6.47
2023-01-13T10:33:31.076Z,6.49
2023-01-13T10:37:33.851Z,6.56
2023-01-13T10:41:35.699Z,6.59
2023-01-13T10:45:37.146Z,6.67
2023-01-13T10:49:38.694Z,6.79
2023-01-13T10:53:51.988Z,6.88
2023-01-13T10:57:53.397Z,7.03
2023-01-13T11:02:03.942Z,7.09
2023-01-13T11:06:18.925Z,7.23
2023-01-13T11:10:24.112Z,7.24
2023-01-13T11:14:34.419Z,7.10
2023-01-13T11:18:43.766Z,7.03
2023-01-13T11:22:46.785Z,6.89
2023-01-13T11:26:55.463Z,7.00
2023-01-13T11:31:04.286Z,7.21
2023-01-13T11:35:15.926Z,7.42
2023-01-13T11:39:24.795Z,7.65
2023-01-13T11:43:32.503Z,7.64
2023-01-13T11:47:35.608Z,7.49
2023-01-13T11:51:42.713Z,7.44
2023-01-13T11:55:53.652Z,7.31
2023-01-13T12:00:10.256Z,7.34
2023-01-13T12:04:27.962Z,7.39
2023-01-13T12:08:59.508Z,7.40
2023-01-13T12:13:08.601Z,7.58
2023-01-13T12:17:25.882Z,7.77
2023-01-13T12:21:29.668Z,7.80
2023-01-13T12:25:34.923Z,8.03
2023-01-13T12:29:38.369Z,8.08
2023-01-13T12:33:51.058Z,8.10
2023-01-13T12:37:59.910Z,8.12
2023-01-13T12:42:09.617Z,8.07
2023-01-13T12:46:34.125Z,8.12
2023-01-13T12:50:41.870Z,7.95
2023-01-13T12:55:08.949Z,7.81
2023-01-13T12:59:40.354Z,7.87
2023-01-13T13:03:42.462Z,7.86
2023-01-13T13:07:48.099Z,7.90
2023-01-13T13:11:49.723Z,7.91
2023-01-13T13:15:52.045Z,7.87
2023-01-13T13:19:54.013Z,7.92
2023-01-13T13:24:12.693Z,7.92
2023-01-13T13:28:22.683Z,8.02
2023-01-13T13:32:56.019Z,7.99
2023-01-13T13:37:10.981Z,9.02
2023-01-13T13:41:19.484Z,9.92
2023-01-13T13:45:23.371Z,10.38
2023-01-13T13:49:36.354Z,10.50
2023-01-13T13:53:41.720Z,10.44
2023-01-13T13:57:46.692Z,9.64
2023-01-13T14:01:52.384Z,8.64
2023-01-13T14:05:56.397Z,8.12
2023-01-13T14:09:57.970Z,7.83
2023-01-13T14:14:06.617Z,7.70
2023-01-13T14:18:13.295Z,7.64
2023-01-13T14:22:16.852Z,7.48
2023-01-13T14:26:18.535Z,7.42
2023-01-13T14:30:24.483Z,7.38
2023-01-13T14:34:34.643Z,7.47
2023-01-13T14:38:36.356Z,7.64
2023-01-13T14:42:38.072Z,7.69
2023-01-13T14:46:40.947Z,7.78
2023-01-13T14:50:46.868Z,7.77
2023-01-13T14:54:49.858Z,7.82
2023-01-13T14:58:51.703Z,7.88
2023-01-13T15:03:06.977Z,6.72
2023-01-13T15:07:20.483Z,6.11
2023-01-13T15:11:25.724Z,6.09
2023-01-13T15:15:29.503Z,5.90
2023-01-13T15:19:31.254Z,5.60
2023-01-13T15:23:34.332Z,5.43
2023-01-13T15:27:37.495Z,5.18
2023-01-13T15:31:39.250Z,5.05
2023-01-13T15:35:43.537Z,4.93
2023-01-13T15:39:46.927Z,4.72
2023-01-13T15:43:48.697Z,4.46
2023-01-13T15:47:50.415Z,4.29
2023-01-13T15:51:52.220Z,4.26
2023-01-13T15:55:57.956Z,4.08
2023-01-13T16:00:02.581Z,4.12
2023-01-13T16:04:04.567Z,4.03
2023-01-13T16:08:13.805Z,4.02
2023-01-13T16:12:17.012Z,4.05
2023-01-13T16:16:21.699Z,3.98
2023-01-13T16:20:24.090Z,3.79
2023-01-13T16:24:25.814Z,3.82
2023-01-13T16:28:28.931Z,4.03
2023-01-13T16:32:30.836Z,4.12
2023-01-13T16:36:35.516Z,4.09
2023-01-13T16:40:37.509Z,4.17
2023-01-13T16:44:40.939Z,4.28
2023-01-13T16:48:42.707Z,4.38
2023-01-13T16:52:44.473Z,4.60
2023-01-13T16:56:46.258Z,4.59
2023-01-13T17:00:49.463Z,4.51
2023-01-13T17:04:51.254Z,4.57
2023-01-13T17:08:53.125Z,4.66
2023-01-13T17:12:56.008Z,4.67
2023-01-13T17:16:59.192Z,4.78
2023-01-13T17:21:01.043Z,4.81
2023-01-13T17:25:02.789Z,4.93
2023-01-13T17:29:06.994Z,4.92
2023-01-13T17:33:10.042Z,4.87
2023-01-13T17:37:12.289Z,5.03
2023-01-13T17:41:14.088Z,5.22
2023-01-13T17:45:15.857Z,5.40
2023-01-13T17:49:20.145Z,5.54
2023-01-13T17:53:21.851Z,5.63
2023-01-13T17:57:23.650Z,5.76
2023-01-13T18:01:25.485Z,5.79
2023-01-13T18:05:28.652Z,5.77
2023-01-13T18:09:30.407Z,5.61
2023-01-13T18:13:33.614Z,5.54
2023-01-13T18:17:35.369Z,5.47
2023-01-13T18:21:38.459Z,5.50
2023-01-13T18:25:40.213Z,5.46
2023-01-13T18:29:42.067Z,5.45
2023-01-13T18:33:43.492Z,5.46
2023-01-13T18:37:46.233Z,5.41
2023-01-13T18:41:47.680Z,5.52
2023-01-13T18:45:50.445Z,5.62
2023-01-13T18:49:51.890Z,5.70
2023-01-13T18:53:54.641Z,5.90
2023-01-13T18:57:56.497Z,5.89
2023-01-13T19:01:58.031Z,5.87
2023-01-13T19:06:01.577Z,5.88
2023-01-13T19:10:06.066Z,5.96
2023-01-13T19:14:07.464Z,5.99
2023-01-13T19:18:08.855Z,6.07
2023-01-13T19:22:10.984Z,6.11
2023-01-13T19:26:13.776Z,6.07
2023-01-13T19:30:15.226Z,6.10
2023-01-13T19:34:16.646Z,6.06
2023-01-13T19:38:18.061Z,6.27
2023-01-13T19:42:20.840Z,6.31
2023-01-13T19:46:25.290Z,6.25
2023-01-13T19:50:26.736Z,6.16
2023-01-13T19:54:28.269Z,6.09
2023-01-13T19:58:31.009Z,5.98
2023-01-13T20:02:32.523Z,6.02
2023-01-13T20:06:33.951Z,6.06
2023-01-13T20:10:36.171Z,6.06
2023-01-13T20:14:38.998Z,6.14
2023-01-13T20:18:40.659Z,6.31
2023-01-13T20:22:42.393Z,6.35
2023-01-13T20:26:44.451Z,6.34
2023-01-13T20:30:47.247Z,6.38
2023-01-13T20:34:48.784Z,6.37
2023-01-13T20:38:50.179Z,6.42
2023-01-13T20:42:51.572Z,6.41
2023-01-13T20:46:54.518Z,6.25
2023-01-13T20:50:55.959Z,6.08
2023-01-13T20:54:57.371Z,6.03
2023-01-13T20:58:58.837Z,6.03
2023-01-13T21:03:01.565Z,5.91
2023-01-13T21:07:03.021Z,5.93
2023-01-13T21:11:05.918Z,5.98
2023-01-13T21:15:10.661Z,6.16
2023-01-13T21:19:13.501Z,6.22
2023-01-13T21:23:14.927Z,6.22
2023-01-13T21:27:16.392Z,6.18
2023-01-13T21:31:18.079Z,6.14
2023-01-13T21:35:20.864Z,6.18
2023-01-13T21:39:22.263Z,6.31
2023-01-13T21:43:23.646Z,6.31
2023-01-13T21:47:25.060Z,6.34
2023-01-13T21:51:28.142Z,6.33
2023-01-13T21:55:30.059Z,6.35
2023-01-13T21:59:31.451Z,6.35
2023-01-13T22:03:32.848Z,5.99
2023-01-13T22:07:37.230Z,5.88
2023-01-13T22:11:38.710Z,5.82
2023-01-13T22:15:40.098Z,5.61
2023-01-13T22:19:41.541Z,5.63
2023-01-13T22:23:44.823Z,5.48
2023-01-13T22:27:46.358Z,5.35
2023-01-13T22:31:47.805Z,5.25
2023-01-13T22:35:54.199Z,5.31
2023-01-13T22:39:56.938Z,5.54
2023-01-13T22:43:58.340Z,5.51
2023-01-13T22:47:59.733Z,5.45
2023-01-13T22:52:01.364Z,5.58
2023-01-13T22:56:05.460Z,5.58
2023-01-13T23:00:08.198Z,5.85
2023-01-13T23:04:11.627Z,6.02
2023-01-13T23:08:13.398Z,6.00
2023-01-13T23:12:16.135Z,6.11
2023-01-13T23:16:20.130Z,6.22
2023-01-13T23:20:21.542Z,6.07
2023-01-13T23:24:23.039Z,6.12
2023-01-13T23:28:26.810Z,6.02
2023-01-13T23:32:28.219Z,6.12
2023-01-13T23:36:29.841Z,5.98
2023-01-13T23:40:33.617Z,5.90
2023-01-13T23:44:36.343Z,5.89
2023-01-13T23:48:38.603Z,5.74
2023-01-13T23:52:40.017Z,5.65
2023-01-13T23:56:41.412Z,5.57
